Terminal Aerodrome Forecast
Issued by NWS

Home | Current Version | Previous Version | Text Only | Print | Product List | Glossary On
Versions: 1 2 3 4 5 6 7 8 9 10 11 12 13 14 15 16
000
FTUS46 KSEW 231700
TAFBLI
TAF
KBLI 231736Z 2318/2418 21006KT P6SM SCT200
     FM240300 VRB03KT P6SM BKN150
     FM241000 00000KT P6SM BCFG BKN150
      TEMPO 2410/2414 2SM BR SCT001 BKN150
     FM241600 VRB03KT P6SM BKN150=

USA.gov is the U.S. government's official web portal to all federal, state and local government web resources and services.